sensor_id;sensor_type;location;lat;lon;timestamp;pressure;altitude;pressure_sealevel;temperature;humidity
78679;BME280;67994;59.334;13.528;2023-03-29T00:00:00;101000.0;;;0.3;80.1
78679;BME280;67994;59.334;13.528;2023-03-29T00:01:00;101000.0;;;0.3;80.5
78679;BME280;67994;59.334;13.528;2023-03-29T00:02:00;101000.0;;;0.2;81.0
78679;BME280;67994;59.334;13.528;2023-03-29T00:03:00;101000.0;;;0.1;81.1
78679;BME280;67994;59.334;13.528;2023-03-29T00:04:00;101000.0;;;0.3;80.3
78679;BME280;67994;59.334;13.528;2023-03-29T00:05:00;101000.0;;;0.2;80.5
78679;BME280;67994;59.334;13.528;2023-03-29T00:06:02;101000.0;;;0.1;81.0
78679;BME280;67994;59.334;13.528;2023-03-29T00:07:00;101000.0;;;0.2;80.8
78679;BME280;67994;59.334;13.528;2023-03-29T00:08:00;101000.0;;;0.3;80.3
78679;BME280;67994;59.334;13.528;2023-03-29T00:09:00;101000.0;;;0.3;80.2
78679;BME280;67994;59.334;13.528;2023-03-29T00:10:00;101000.0;;;0.1;80.9
78679;BME280;67994;59.334;13.528;2023-03-29T00:11:00;101000.0;;;0.0;81.3
78679;BME280;67994;59.334;13.528;2023-03-29T00:12:01;101000.0;;;0.1;81.0
78679;BME280;67994;59.334;13.528;2023-03-29T00:13:01;101000.0;;;0.1;81.0
78679;BME280;67994;59.334;13.528;2023-03-29T00:14:00;101000.0;;;0.1;81.3
78679;BME280;67994;59.334;13.528;2023-03-29T00:15:00;101000.0;;;0.0;81.2
78679;BME280;67994;59.334;13.528;2023-03-29T00:16:00;101000.0;;;0.0;81.3
78679;BME280;67994;59.334;13.528;2023-03-29T00:17:00;101000.0;;;0.2;80.9
78679;BME280;67994;59.334;13.528;2023-03-29T00:18:00;101000.0;;;0.2;80.9
78679;BME280;67994;59.334;13.528;2023-03-29T00:19:00;101000.0;;;0.2;80.5
78679;BME280;67994;59.334;13.528;2023-03-29T00:20:00;101000.0;;;0.2;80.6
78679;BME280;67994;59.334;13.528;2023-03-29T00:21:00;101000.0;;;0.2;80.7
78679;BME280;67994;59.334;13.528;2023-03-29T00:22:00;100900.0;;;0.1;81.1
78679;BME280;67994;59.334;13.528;2023-03-29T00:23:00;100900.0;;;0.1;81.1
78679;BME280;67994;59.334;13.528;2023-03-29T00:24:00;100900.0;;;-0.0;81.6
78679;BME280;67994;59.334;13.528;2023-03-29T00:25:00;100900.0;;;-0.0;81.8
78679;BME280;67994;59.334;13.528;2023-03-29T00:26:01;100900.0;;;-0.0;81.8
78679;BME280;67994;59.334;13.528;2023-03-29T00:27:00;100900.0;;;-0.1;81.7
78679;BME280;67994;59.334;13.528;2023-03-29T00:28:00;100900.0;;;-0.1;81.7
78679;BME280;67994;59.334;13.528;2023-03-29T00:29:00;100900.0;;;-0.0;81.7
78679;BME280;67994;59.334;13.528;2023-03-29T00:30:00;100900.0;;;-0.0;81.9
78679;BME280;67994;59.334;13.528;2023-03-29T00:31:05;101000.0;;;-0.1;81.8
78679;BME280;67994;59.334;13.528;2023-03-29T00:32:00;101000.0;;;-0.1;82.1
78679;BME280;67994;59.334;13.528;2023-03-29T00:33:00;101000.0;;;-0.1;82.4
78679;BME280;67994;59.334;13.528;2023-03-29T00:34:00;101000.0;;;-0.1;82.3
78679;BME280;67994;59.334;13.528;2023-03-29T00:35:00;100900.0;;;-0.2;82.6
78679;BME280;67994;59.334;13.528;2023-03-29T00:36:01;100900.0;;;-0.1;82.5
78679;BME280;67994;59.334;13.528;2023-03-29T00:37:00;100900.0;;;0.0;82.3
78679;BME280;67994;59.334;13.528;2023-03-29T00:38:00;100900.0;;;-0.1;82.4
78679;BME280;67994;59.334;13.528;2023-03-29T00:39:00;100900.0;;;0.0;82.3
78679;BME280;67994;59.334;13.528;2023-03-29T00:40:00;100900.0;;;-0.2;82.7
78679;BME280;67994;59.334;13.528;2023-03-29T00:41:01;100900.0;;;-0.1;82.8
78679;BME280;67994;59.334;13.528;2023-03-29T00:42:01;100900.0;;;-0.3;83.4
78679;BME280;67994;59.334;13.528;2023-03-29T00:43:00;100900.0;;;-0.2;83.6
78679;BME280;67994;59.334;13.528;2023-03-29T00:44:02;100900.0;;;-0.2;83.6
78679;BME280;67994;59.334;13.528;2023-03-29T00:45:04;100900.0;;;-0.3;83.9
78679;BME280;67994;59.334;13.528;2023-03-29T00:46:00;100900.0;;;-0.2;83.7
78679;BME280;67994;59.334;13.528;2023-03-29T00:47:00;100900.0;;;-0.1;82.8
78679;BME280;67994;59.334;13.528;2023-03-29T00:48:02;100900.0;;;0.1;82.3
78679;BME280;67994;59.334;13.528;2023-03-29T00:49:03;100900.0;;;0.0;82.4
78679;BME280;67994;59.334;13.528;2023-03-29T00:50:04;100900.0;;;-0.0;82.3
78679;BME280;67994;59.334;13.528;2023-03-29T00:51:02;100900.0;;;-0.1;82.5
78679;BME280;67994;59.334;13.528;2023-03-29T00:52:00;100900.0;;;-0.1;82.6
78679;BME280;67994;59.334;13.528;2023-03-29T00:53:02;100900.0;;;-0.0;82.4
78679;BME280;67994;59.334;13.528;2023-03-29T00:54:02;100900.0;;;-0.2;83.0
78679;BME280;67994;59.334;13.528;2023-03-29T00:55:05;100900.0;;;-0.2;83.0
78679;BME280;67994;59.334;13.528;2023-03-29T00:56:02;100900.0;;;-0.2;83.2
78679;BME280;67994;59.334;13.528;2023-03-29T00:57:00;100900.0;;;-0.3;83.6
78679;BME280;67994;59.334;13.528;2023-03-29T00:58:01;100900.0;;;-0.3;83.7
78679;BME280;67994;59.334;13.528;2023-03-29T00:59:03;100900.0;;;-0.2;83.4
78679;BME280;67994;59.334;13.528;2023-03-29T01:00:03;100900.0;;;-0.3;83.7
78679;BME280;67994;59.334;13.528;2023-03-29T01:01:05;100900.0;;;-0.3;83.8
78679;BME280;67994;59.334;13.528;2023-03-29T01:02:02;100900.0;;;-0.2;83.4
78679;BME280;67994;59.334;13.528;2023-03-29T01:03:04;100900.0;;;-0.3;83.7
78679;BME280;67994;59.334;13.528;2023-03-29T01:04:03;100900.0;;;-0.4;84.0
78679;BME280;67994;59.334;13.528;2023-03-29T01:05:03;100900.0;;;-0.3;83.8
78679;BME280;67994;59.334;13.528;2023-03-29T01:06:04;100900.0;;;-0.4;84.0
78679;BME280;67994;59.334;13.528;2023-03-29T01:07:04;100900.0;;;-0.4;84.0
78679;BME280;67994;59.334;13.528;2023-03-29T01:08:02;100900.0;;;-0.3;83.8
78679;BME280;67994;59.334;13.528;2023-03-29T01:09:02;100900.0;;;-0.4;84.0
78679;BME280;67994;59.334;13.528;2023-03-29T01:10:05;100900.0;;;-0.4;84.2
78679;BME280;67994;59.334;13.528;2023-03-29T01:11:03;100900.0;;;-0.4;84.4
78679;BME280;67994;59.334;13.528;2023-03-29T01:12:02;100900.0;;;-0.3;84.3
78679;BME280;67994;59.334;13.528;2023-03-29T01:13:05;100900.0;;;-0.4;84.6
78679;BME280;67994;59.334;13.528;2023-03-29T01:14:02;100900.0;;;-0.4;84.6
78679;BME280;67994;59.334;13.528;2023-03-29T01:15:03;100900.0;;;-0.3;84.4
78679;BME280;67994;59.334;13.528;2023-03-29T01:16:01;100900.0;;;-0.4;84.7
78679;BME280;67994;59.334;13.528;2023-03-29T01:17:00;100900.0;;;-0.4;84.8
78679;BME280;67994;59.334;13.528;2023-03-29T01:18:00;100900.0;;;-0.4;84.8
78679;BME280;67994;59.334;13.528;2023-03-29T01:19:00;100900.0;;;-0.3;84.3
78679;BME280;67994;59.334;13.528;2023-03-29T01:20:05;100900.0;;;-0.4;84.4
78679;BME280;67994;59.334;13.528;2023-03-29T01:21:07;100900.0;;;-0.4;84.7
78679;BME280;67994;59.334;13.528;2023-03-29T01:22:09;100900.0;;;-0.4;84.7
78679;BME280;67994;59.334;13.528;2023-03-29T01:23:10;100900.0;;;-0.4;84.5
78679;BME280;67994;59.334;13.528;2023-03-29T01:24:06;100900.0;;;-0.4;84.6
78679;BME280;67994;59.334;13.528;2023-03-29T01:25:06;100900.0;;;-0.5;84.7
78679;BME280;67994;59.334;13.528;2023-03-29T01:26:06;100900.0;;;-0.4;84.4
78679;BME280;67994;59.334;13.528;2023-03-29T01:27:05;100900.0;;;-0.4;84.4
78679;BME280;67994;59.334;13.528;2023-03-29T01:28:03;100900.0;;;-0.5;84.5
78679;BME280;67994;59.334;13.528;2023-03-29T01:29:03;100900.0;;;-0.5;84.7
78679;BME280;67994;59.334;13.528;2023-03-29T01:30:02;100900.0;;;-0.4;84.4
78679;BME280;67994;59.334;13.528;2023-03-29T01:31:03;100900.0;;;-0.5;84.6
78679;BME280;67994;59.334;13.528;2023-03-29T01:32:03;100900.0;;;-0.6;84.7
78679;BME280;67994;59.334;13.528;2023-03-29T01:33:03;100900.0;;;-0.6;84.8
78679;BME280;67994;59.334;13.528;2023-03-29T01:34:06;100900.0;;;-0.5;84.6
78679;BME280;67994;59.334;13.528;2023-03-29T01:35:03;100800.0;;;-0.5;84.3
78679;BME280;67994;59.334;13.528;2023-03-29T01:36:05;100800.0;;;-0.5;84.2
78679;BME280;67994;59.334;13.528;2023-03-29T01:37:03;100800.0;;;-0.5;84.3
78679;BME280;67994;59.334;13.528;2023-03-29T01:38:05;100800.0;;;-0.6;84.5
78679;BME280;67994;59.334;13.528;2023-03-29T01:39:02;100800.0;;;-0.5;84.6
78679;BME280;67994;59.334;13.528;2023-03-29T01:40:00;100800.0;;;-0.5;84.6
78679;BME280;67994;59.334;13.528;2023-03-29T01:41:00;100800.0;;;-0.6;84.7
78679;BME280;67994;59.334;13.528;2023-03-29T01:42:09;100800.0;;;-0.6;84.6
78679;BME280;67994;59.334;13.528;2023-03-29T01:43:05;100800.0;;;-0.6;84.9
78679;BME280;67994;59.334;13.528;2023-03-29T01:44:03;100800.0;;;-0.5;84.9
78679;BME280;67994;59.334;13.528;2023-03-29T01:45:06;100800.0;;;-0.5;84.6
78679;BME280;67994;59.334;13.528;2023-03-29T01:46:04;100800.0;;;-0.6;84.5
78679;BME280;67994;59.334;13.528;2023-03-29T01:47:07;100800.0;;;-0.5;84.4
78679;BME280;67994;59.334;13.528;2023-03-29T01:48:07;100800.0;;;-0.5;84.2
78679;BME280;67994;59.334;13.528;2023-03-29T01:49:02;100800.0;;;-0.6;84.0
78679;BME280;67994;59.334;13.528;2023-03-29T01:50:06;100800.0;;;-0.5;83.8
78679;BME280;67994;59.334;13.528;2023-03-29T01:51:04;100800.0;;;-0.5;84.0
78679;BME280;67994;59.334;13.528;2023-03-29T01:52:05;100800.0;;;-0.5;84.0
78679;BME280;67994;59.334;13.528;2023-03-29T01:53:03;100800.0;;;-0.6;84.3
78679;BME280;67994;59.334;13.528;2023-03-29T01:54:04;100800.0;;;-0.5;84.2
78679;BME280;67994;59.334;13.528;2023-03-29T01:55:05;100800.0;;;-0.5;84.2
78679;BME280;67994;59.334;13.528;2023-03-29T01:56:02;100800.0;;;-0.6;84.5
78679;BME280;67994;59.334;13.528;2023-03-29T01:57:01;100800.0;;;-0.6;84.4
78679;BME280;67994;59.334;13.528;2023-03-29T01:58:02;100800.0;;;-0.5;84.3
78679;BME280;67994;59.334;13.528;2023-03-29T01:59:02;100800.0;;;-0.5;84.1
78679;BME280;67994;59.334;13.528;2023-03-29T02:00:01;100800.0;;;-0.6;84.3
78679;BME280;67994;59.334;13.528;2023-03-29T02:01:02;100800.0;;;-0.6;84.2
78679;BME280;67994;59.334;13.528;2023-03-29T02:02:02;100800.0;;;-0.6;84.4
78679;BME280;67994;59.334;13.528;2023-03-29T02:03:05;100800.0;;;-0.6;84.5
78679;BME280;67994;59.334;13.528;2023-03-29T02:04:03;100800.0;;;-0.6;84.6
78679;BME280;67994;59.334;13.528;2023-03-29T02:05:00;100800.0;;;-0.6;84.5
78679;BME280;67994;59.334;13.528;2023-03-29T02:06:01;100800.0;;;-0.6;84.7
78679;BME280;67994;59.334;13.528;2023-03-29T02:07:02;100800.0;;;-0.7;84.6
78679;BME280;67994;59.334;13.528;2023-03-29T02:08:01;100800.0;;;-0.7;84.6
78679;BME280;67994;59.334;13.528;2023-03-29T02:09:00;100800.0;;;-0.7;84.5
78679;BME280;67994;59.334;13.528;2023-03-29T02:10:00;100800.0;;;-0.7;84.6
78679;BME280;67994;59.334;13.528;2023-03-29T02:11:00;100800.0;;;-0.7;84.8
78679;BME280;67994;59.334;13.528;2023-03-29T02:12:01;100800.0;;;-0.7;84.7
78679;BME280;67994;59.334;13.528;2023-03-29T02:13:00;100800.0;;;-0.8;85.0
78679;BME280;67994;59.334;13.528;2023-03-29T02:14:00;100800.0;;;-0.8;84.9
78679;BME280;67994;59.334;13.528;2023-03-29T02:15:00;100800.0;;;-0.8;84.9
78679;BME280;67994;59.334;13.528;2023-03-29T02:16:02;100800.0;;;-0.8;85.1
78679;BME280;67994;59.334;13.528;2023-03-29T02:17:13;100800.0;;;-0.8;85.2
78679;BME280;67994;59.334;13.528;2023-03-29T02:18:00;100800.0;;;-0.8;85.3
78679;BME280;67994;59.334;13.528;2023-03-29T02:19:01;100800.0;;;-0.7;85.0
78679;BME280;67994;59.334;13.528;2023-03-29T02:20:03;100800.0;;;-0.8;84.8
78679;BME280;67994;59.334;13.528;2023-03-29T02:21:00;100800.0;;;-0.7;84.9
78679;BME280;67994;59.334;13.528;2023-03-29T02:22:04;100800.0;;;-0.8;85.2
78679;BME280;67994;59.334;13.528;2023-03-29T02:23:05;100800.0;;;-0.8;85.0
78679;BME280;67994;59.334;13.528;2023-03-29T02:24:03;100800.0;;;-0.8;85.2
78679;BME280;67994;59.334;13.528;2023-03-29T02:25:02;100800.0;;;-0.8;85.2
78679;BME280;67994;59.334;13.528;2023-03-29T02:26:01;100800.0;;;-0.8;85.0
78679;BME280;67994;59.334;13.528;2023-03-29T02:27:01;100800.0;;;-0.8;85.0
78679;BME280;67994;59.334;13.528;2023-03-29T02:28:00;100800.0;;;-0.8;85.1
78679;BME280;67994;59.334;13.528;2023-03-29T02:29:00;100800.0;;;-0.7;84.8
78679;BME280;67994;59.334;13.528;2023-03-29T02:30:00;100700.0;;;-0.8;85.1
78679;BME280;67994;59.334;13.528;2023-03-29T02:31:04;100700.0;;;-0.8;85.1
78679;BME280;67994;59.334;13.528;2023-03-29T02:32:04;100700.0;;;-0.8;85.0
78679;BME280;67994;59.334;13.528;2023-03-29T02:33:03;100700.0;;;-0.8;85.3
78679;BME280;67994;59.334;13.528;2023-03-29T02:34:04;100700.0;;;-0.8;85.3
78679;BME280;67994;59.334;13.528;2023-03-29T02:35:03;100700.0;;;-0.9;85.4
78679;BME280;67994;59.334;13.528;2023-03-29T02:36:03;100700.0;;;-0.9;85.2
78679;BME280;67994;59.334;13.528;2023-03-29T02:37:03;100700.0;;;-0.8;85.2
78679;BME280;67994;59.334;13.528;2023-03-29T02:38:02;100700.0;;;-0.9;85.2
78679;BME280;67994;59.334;13.528;2023-03-29T02:39:01;100700.0;;;-0.8;85.1
78679;BME280;67994;59.334;13.528;2023-03-29T02:40:01;100700.0;;;-0.9;85.2
78679;BME280;67994;59.334;13.528;2023-03-29T02:41:01;100700.0;;;-0.9;85.5
78679;BME280;67994;59.334;13.528;2023-03-29T02:42:01;100700.0;;;-0.9;85.5
78679;BME280;67994;59.334;13.528;2023-03-29T02:43:01;100700.0;;;-0.9;85.6
78679;BME280;67994;59.334;13.528;2023-03-29T02:44:01;100700.0;;;-0.8;85.3
78679;BME280;67994;59.334;13.528;2023-03-29T02:45:01;100700.0;;;-0.9;85.4
78679;BME280;67994;59.334;13.528;2023-03-29T02:46:01;100700.0;;;-0.9;85.6
78679;BME280;67994;59.334;13.528;2023-03-29T02:47:03;100700.0;;;-1.0;85.6
78679;BME280;67994;59.334;13.528;2023-03-29T02:48:02;100700.0;;;-1.0;85.9
78679;BME280;67994;59.334;13.528;2023-03-29T02:49:00;100700.0;;;-1.0;86.0
78679;BME280;67994;59.334;13.528;2023-03-29T02:50:00;100700.0;;;-0.9;85.9
78679;BME280;67994;59.334;13.528;2023-03-29T02:51:03;100700.0;;;-0.9;85.7
78679;BME280;67994;59.334;13.528;2023-03-29T02:52:05;100700.0;;;-1.0;85.9
78679;BME280;67994;59.334;13.528;2023-03-29T02:53:03;100700.0;;;-1.0;86.0
78679;BME280;67994;59.334;13.528;2023-03-29T02:54:05;100700.0;;;-0.9;86.0
78679;BME280;67994;59.334;13.528;2023-03-29T02:55:01;100700.0;;;-0.9;86.0
78679;BME280;67994;59.334;13.528;2023-03-29T02:56:00;100700.0;;;-0.9;86.0
78679;BME280;67994;59.334;13.528;2023-03-29T02:57:03;100700.0;;;-1.0;86.2
78679;BME280;67994;59.334;13.528;2023-03-29T02:58:01;100700.0;;;-1.0;86.3
78679;BME280;67994;59.334;13.528;2023-03-29T02:59:00;100700.0;;;-1.0;86.1
78679;BME280;67994;59.334;13.528;2023-03-29T03:00:00;100700.0;;;-1.1;86.2
78679;BME280;67994;59.334;13.528;2023-03-29T03:01:01;100700.0;;;-1.0;86.1
78679;BME280;67994;59.334;13.528;2023-03-29T03:02:00;100700.0;;;-1.1;86.2
78679;BME280;67994;59.334;13.528;2023-03-29T03:03:00;100700.0;;;-1.1;86.2
78679;BME280;67994;59.334;13.528;2023-03-29T03:04:00;100700.0;;;-1.1;86.2
78679;BME280;67994;59.334;13.528;2023-03-29T03:05:00;100700.0;;;-1.1;86.4
78679;BME280;67994;59.334;13.528;2023-03-29T03:06:00;100700.0;;;-1.1;86.3
78679;BME280;67994;59.334;13.528;2023-03-29T03:07:00;100700.0;;;-1.1;86.5
78679;BME280;67994;59.334;13.528;2023-03-29T03:08:00;100700.0;;;-1.1;86.5
78679;BME280;67994;59.334;13.528;2023-03-29T03:09:00;100700.0;;;-1.1;86.4
78679;BME280;67994;59.334;13.528;2023-03-29T03:10:00;100700.0;;;-1.1;86.6
78679;BME280;67994;59.334;13.528;2023-03-29T03:11:00;100700.0;;;-1.1;86.6
78679;BME280;67994;59.334;13.528;2023-03-29T03:12:00;100700.0;;;-1.1;86.6
78679;BME280;67994;59.334;13.528;2023-03-29T03:13:00;100700.0;;;-1.1;86.5
78679;BME280;67994;59.334;13.528;2023-03-29T03:14:00;100700.0;;;-1.2;86.7
78679;BME280;67994;59.334;13.528;2023-03-29T03:15:00;100700.0;;;-1.2;86.9
78679;BME280;67994;59.334;13.528;2023-03-29T03:16:00;100700.0;;;-1.2;87.0
78679;BME280;67994;59.334;13.528;2023-03-29T03:17:00;100700.0;;;-1.2;87.1
78679;BME280;67994;59.334;13.528;2023-03-29T03:18:00;100700.0;;;-1.2;87.0
78679;BME280;67994;59.334;13.528;2023-03-29T03:19:00;100700.0;;;-1.2;87.1
78679;BME280;67994;59.334;13.528;2023-03-29T03:20:00;100700.0;;;-1.2;87.1
78679;BME280;67994;59.334;13.528;2023-03-29T03:21:00;100700.0;;;-1.3;87.3
78679;BME280;67994;59.334;13.528;2023-03-29T03:22:00;100700.0;;;-1.2;87.2
78679;BME280;67994;59.334;13.528;2023-03-29T03:23:00;100700.0;;;-1.2;87.3
78679;BME280;67994;59.334;13.528;2023-03-29T03:24:00;100700.0;;;-1.2;87.0
78679;BME280;67994;59.334;13.528;2023-03-29T03:25:00;100700.0;;;-1.2;87.0
78679;BME280;67994;59.334;13.528;2023-03-29T03:26:00;100600.0;;;-1.3;87.4
78679;BME280;67994;59.334;13.528;2023-03-29T03:27:00;100600.0;;;-1.2;87.5
78679;BME280;67994;59.334;13.528;2023-03-29T03:28:00;100600.0;;;-1.2;87.4
78679;BME280;67994;59.334;13.528;2023-03-29T03:29:00;100600.0;;;-1.2;87.4
78679;BME280;67994;59.334;13.528;2023-03-29T03:30:00;100600.0;;;-1.2;87.4
78679;BME280;67994;59.334;13.528;2023-03-29T03:31:00;100600.0;;;-1.2;87.5
78679;BME280;67994;59.334;13.528;2023-03-29T03:32:00;100600.0;;;-1.2;87.5
78679;BME280;67994;59.334;13.528;2023-03-29T03:33:00;100600.0;;;-1.1;87.3
78679;BME280;67994;59.334;13.528;2023-03-29T03:34:00;100600.0;;;-1.1;87.3
78679;BME280;67994;59.334;13.528;2023-03-29T03:35:00;100600.0;;;-1.2;87.4
78679;BME280;67994;59.334;13.528;2023-03-29T03:36:00;100600.0;;;-1.2;87.1
78679;BME280;67994;59.334;13.528;2023-03-29T03:37:00;100600.0;;;-1.2;87.1
78679;BME280;67994;59.334;13.528;2023-03-29T03:38:00;100600.0;;;-1.2;87.4
78679;BME280;67994;59.334;13.528;2023-03-29T03:39:00;100600.0;;;-1.3;87.6
78679;BME280;67994;59.334;13.528;2023-03-29T03:40:00;100600.0;;;-1.2;87.5
78679;BME280;67994;59.334;13.528;2023-03-29T03:41:00;100600.0;;;-1.2;87.5
78679;BME280;67994;59.334;13.528;2023-03-29T03:42:00;100600.0;;;-1.2;87.6
78679;BME280;67994;59.334;13.528;2023-03-29T03:43:00;100600.0;;;-1.2;87.7
78679;BME280;67994;59.334;13.528;2023-03-29T03:44:00;100600.0;;;-1.2;87.6
78679;BME280;67994;59.334;13.528;2023-03-29T03:45:00;100600.0;;;-1.2;87.7
78679;BME280;67994;59.334;13.528;2023-03-29T03:46:01;100600.0;;;-1.2;87.5
78679;BME280;67994;59.334;13.528;2023-03-29T03:47:00;100600.0;;;-1.2;87.6
78679;BME280;67994;59.334;13.528;2023-03-29T03:48:00;100600.0;;;-1.3;88.0
78679;BME280;67994;59.334;13.528;2023-03-29T03:49:00;100600.0;;;-1.2;88.2
78679;BME280;67994;59.334;13.528;2023-03-29T03:50:00;100600.0;;;-1.2;87.9
78679;BME280;67994;59.334;13.528;2023-03-29T03:51:00;100600.0;;;-1.2;87.8
78679;BME280;67994;59.334;13.528;2023-03-29T03:52:00;100600.0;;;-1.3;87.9
78679;BME280;67994;59.334;13.528;2023-03-29T03:53:00;100600.0;;;-1.4;88.0
78679;BME280;67994;59.334;13.528;2023-03-29T03:54:00;100600.0;;;-1.3;87.9
78679;BME280;67994;59.334;13.528;2023-03-29T03:55:00;100600.0;;;-1.3;88.0
78679;BME280;67994;59.334;13.528;2023-03-29T03:56:00;100600.0;;;-1.3;87.9
78679;BME280;67994;59.334;13.528;2023-03-29T03:57:00;100600.0;;;-1.3;88.0
78679;BME280;67994;59.334;13.528;2023-03-29T03:58:00;100600.0;;;-1.3;88.0
78679;BME280;67994;59.334;13.528;2023-03-29T03:59:00;100600.0;;;-1.2;88.0
78679;BME280;67994;59.334;13.528;2023-03-29T04:00:00;100600.0;;;-1.3;87.9
78679;BME280;67994;59.334;13.528;2023-03-29T04:01:00;100600.0;;;-1.3;87.8
78679;BME280;67994;59.334;13.528;2023-03-29T04:02:00;100600.0;;;-1.2;87.7
78679;BME280;67994;59.334;13.528;2023-03-29T04:03:00;100600.0;;;-1.2;87.6
78679;BME280;67994;59.334;13.528;2023-03-29T04:04:00;100600.0;;;-1.3;87.7
78679;BME280;67994;59.334;13.528;2023-03-29T04:05:00;100600.0;;;-1.3;87.9
78679;BME280;67994;59.334;13.528;2023-03-29T04:06:01;100600.0;;;-1.3;87.8
78679;BME280;67994;59.334;13.528;2023-03-29T04:07:00;100600.0;;;-1.4;88.1
78679;BME280;67994;59.334;13.528;2023-03-29T04:08:00;100600.0;;;-1.5;88.2
78679;BME280;67994;59.334;13.528;2023-03-29T04:09:00;100600.0;;;-1.3;88.0
78679;BME280;67994;59.334;13.528;2023-03-29T04:10:00;100600.0;;;-1.3;87.9
78679;BME280;67994;59.334;13.528;2023-03-29T04:11:00;100600.0;;;-1.2;87.7
78679;BME280;67994;59.334;13.528;2023-03-29T04:12:00;100600.0;;;-1.4;87.8
78679;BME280;67994;59.334;13.528;2023-03-29T04:13:01;100600.0;;;-1.4;87.7
78679;BME280;67994;59.334;13.528;2023-03-29T04:14:00;100600.0;;;-1.4;87.7
78679;BME280;67994;59.334;13.528;2023-03-29T04:15:00;100600.0;;;-1.4;87.6
78679;BME280;67994;59.334;13.528;2023-03-29T04:16:00;100600.0;;;-1.6;88.2
78679;BME280;67994;59.334;13.528;2023-03-29T04:17:00;100600.0;;;-1.4;87.9
78679;BME280;67994;59.334;13.528;2023-03-29T04:18:00;100600.0;;;-1.4;87.8
78679;BME280;67994;59.334;13.528;2023-03-29T04:19:00;100600.0;;;-1.4;87.7
78679;BME280;67994;59.334;13.528;2023-03-29T04:20:00;100600.0;;;-1.4;87.7
78679;BME280;67994;59.334;13.528;2023-03-29T04:21:00;100600.0;;;-1.5;87.9
78679;BME280;67994;59.334;13.528;2023-03-29T04:22:00;100600.0;;;-1.4;87.7
78679;BME280;67994;59.334;13.528;2023-03-29T04:23:00;100600.0;;;-1.4;87.7
78679;BME280;67994;59.334;13.528;2023-03-29T04:24:00;100600.0;;;-1.5;87.7
78679;BME280;67994;59.334;13.528;2023-03-29T04:25:00;100600.0;;;-1.5;87.9
78679;BME280;67994;59.334;13.528;2023-03-29T04:26:00;100600.0;;;-1.5;87.9
78679;BME280;67994;59.334;13.528;2023-03-29T04:27:00;100600.0;;;-1.7;88.4
78679;BME280;67994;59.334;13.528;2023-03-29T04:28:00;100600.0;;;-1.6;88.1
78679;BME280;67994;59.334;13.528;2023-03-29T04:29:00;100600.0;;;-1.6;88.2
78679;BME280;67994;59.334;13.528;2023-03-29T04:30:00;100600.0;;;-1.5;87.9
78679;BME280;67994;59.334;13.528;2023-03-29T04:31:00;100600.0;;;-1.5;87.9
78679;BME280;67994;59.334;13.528;2023-03-29T04:32:00;100600.0;;;-1.5;87.9
78679;BME280;67994;59.334;13.528;2023-03-29T04:33:00;100600.0;;;-1.5;88.0
78679;BME280;67994;59.334;13.528;2023-03-29T04:34:00;100600.0;;;-1.5;87.7
78679;BME280;67994;59.334;13.528;2023-03-29T04:35:00;100600.0;;;-1.4;87.7
78679;BME280;67994;59.334;13.528;2023-03-29T04:36:00;100600.0;;;-1.5;87.9
78679;BME280;67994;59.334;13.528;2023-03-29T04:37:00;100600.0;;;-1.5;87.9
78679;BME280;67994;59.334;13.528;2023-03-29T04:38:00;100600.0;;;-1.6;87.9
78679;BME280;67994;59.334;13.528;2023-03-29T04:39:00;100600.0;;;-1.5;87.8
78679;BME280;67994;59.334;13.528;2023-03-29T04:40:00;100600.0;;;-1.6;88.0
78679;BME280;67994;59.334;13.528;2023-03-29T04:41:00;100600.0;;;-1.6;88.0
78679;BME280;67994;59.334;13.528;2023-03-29T04:42:00;100600.0;;;-1.6;88.1
78679;BME280;67994;59.334;13.528;2023-03-29T04:43:00;100600.0;;;-1.6;88.0
78679;BME280;67994;59.334;13.528;2023-03-29T04:44:00;100600.0;;;-1.5;87.9
78679;BME280;67994;59.334;13.528;2023-03-29T04:45:00;100600.0;;;-1.5;87.8
78679;BME280;67994;59.334;13.528;2023-03-29T04:46:00;100600.0;;;-1.5;87.7
78679;BME280;67994;59.334;13.528;2023-03-29T04:47:00;100600.0;;;-1.7;88.2
78679;BME280;67994;59.334;13.528;2023-03-29T04:48:00;100600.0;;;-1.7;88.3
78679;BME280;67994;59.334;13.528;2023-03-29T04:49:00;100600.0;;;-1.7;87.9
78679;BME280;67994;59.334;13.528;2023-03-29T04:50:00;100600.0;;;-1.6;87.9
78679;BME280;67994;59.334;13.528;2023-03-29T04:51:00;100600.0;;;-1.8;88.2
78679;BME280;67994;59.334;13.528;2023-03-29T04:52:00;100600.0;;;-1.6;88.1
78679;BME280;67994;59.334;13.528;2023-03-29T04:53:00;100600.0;;;-1.7;88.3
78679;BME280;67994;59.334;13.528;2023-03-29T04:54:00;100600.0;;;-1.7;88.1
78679;BME280;67994;59.334;13.528;2023-03-29T04:55:01;100600.0;;;-1.7;88.1
78679;BME280;67994;59.334;13.528;2023-03-29T04:56:00;100600.0;;;-1.7;88.1
78679;BME280;67994;59.334;13.528;2023-03-29T04:57:00;100600.0;;;-1.7;88.0
78679;BME280;67994;59.334;13.528;2023-03-29T04:58:00;100600.0;;;-1.6;87.9
78679;BME280;67994;59.334;13.528;2023-03-29T04:59:00;100600.0;;;-1.7;88.1
78679;BME280;67994;59.334;13.528;2023-03-29T05:00:00;100600.0;;;-1.8;88.5
78679;BME280;67994;59.334;13.528;2023-03-29T05:01:00;100600.0;;;-1.8;88.2
78679;BME280;67994;59.334;13.528;2023-03-29T05:02:00;100600.0;;;-1.9;88.4
78679;BME280;67994;59.334;13.528;2023-03-29T05:03:00;100600.0;;;-1.7;88.0
78679;BME280;67994;59.334;13.528;2023-03-29T05:04:00;100600.0;;;-1.8;87.9
78679;BME280;67994;59.334;13.528;2023-03-29T05:05:00;100600.0;;;-1.7;87.9
78679;BME280;67994;59.334;13.528;2023-03-29T05:06:01;100600.0;;;-1.8;87.9
78679;BME280;67994;59.334;13.528;2023-03-29T05:07:00;100600.0;;;-1.8;87.8
78679;BME280;67994;59.334;13.528;2023-03-29T05:08:00;100600.0;;;-1.8;87.7
78679;BME280;67994;59.334;13.528;2023-03-29T05:09:00;100600.0;;;-1.7;87.5
78679;BME280;67994;59.334;13.528;2023-03-29T05:10:00;100600.0;;;-1.9;88.0
78679;BME280;67994;59.334;13.528;2023-03-29T05:11:00;100600.0;;;-1.8;87.8
78679;BME280;67994;59.334;13.528;2023-03-29T05:12:00;100600.0;;;-1.7;87.8
78679;BME280;67994;59.334;13.528;2023-03-29T05:13:00;100600.0;;;-1.9;88.0
78679;BME280;67994;59.334;13.528;2023-03-29T05:14:00;100600.0;;;-1.8;87.8
78679;BME280;67994;59.334;13.528;2023-03-29T05:15:00;100600.0;;;-1.8;87.8
78679;BME280;67994;59.334;13.528;2023-03-29T05:16:00;100600.0;;;-1.7;87.7
78679;BME280;67994;59.334;13.528;2023-03-29T05:17:00;100600.0;;;-1.6;87.4
78679;BME280;67994;59.334;13.528;2023-03-29T05:18:00;100600.0;;;-1.7;87.5
78679;BME280;67994;59.334;13.528;2023-03-29T05:19:00;100600.0;;;-1.7;87.6
78679;BME280;67994;59.334;13.528;2023-03-29T05:20:00;100600.0;;;-1.8;87.6
78679;BME280;67994;59.334;13.528;2023-03-29T05:21:00;100600.0;;;-1.9;87.8
78679;BME280;67994;59.334;13.528;2023-03-29T05:22:00;100600.0;;;-1.9;88.0